Time;durP1;ratioP1;P1;durP2;ratioP2;P2;SDS_P1;SDS_P2;PMS_P1;PMS_P2;Temp;Humidity;BMP_temperature;BMP_pressure;BME280_temperature;BME280_humidity;BME280_pressure;Samples;Min_cycle;Max_cycle;Signal;HPM_P1;HPM_P2
2022/05/09 00:01:31;;;;;;;3.25;2.95;;;;;;;;;;5080486;28;24499;-44
2022/05/09 00:03:57;;;;;;;3.53;3.22;;;;;;;;;;5084788;28;25113;-45
2022/05/09 00:06:23;;;;;;;3.27;2.97;;;;;;;;;;5085917;28;24509;-45
2022/05/09 00:08:48;;;;;;;3.00;2.80;;;;;;;;;;5084958;28;24560;-47
2022/05/09 00:11:13;;;;;;;5.93;2.90;;;;;;;;;;5086981;28;24433;-44
2022/05/09 00:13:38;;;;;;;4.78;3.20;;;;;;;;;;5087178;28;24430;-44
2022/05/09 00:16:04;;;;;;;4.17;3.30;;;;;;;;;;5086553;28;24560;-44
2022/05/09 00:18:29;;;;;;;4.68;3.40;;;;;;;;;;5087851;28;24764;-44
2022/05/09 00:20:54;;;;;;;4.97;3.30;;;;;;;;;;5083278;28;24437;-44
2022/05/09 00:23:20;;;;;;;3.60;3.27;;;;;;;;;;5086134;28;24418;-44
2022/05/09 00:25:45;;;;;;;5.07;3.50;;;;;;;;;;5087430;28;24437;-44
2022/05/09 00:28:10;;;;;;;5.20;3.20;;;;;;;;;;5082785;28;25423;-44
2022/05/09 00:30:36;;;;;;;4.22;3.30;;;;;;;;;;5086631;28;24435;-44
2022/05/09 00:33:01;;;;;;;4.47;3.40;;;;;;;;;;5083412;28;25043;-45
2022/05/09 00:35:26;;;;;;;6.10;3.30;;;;;;;;;;5082529;28;24505;-45
2022/05/09 00:37:51;;;;;;;4.68;3.42;;;;;;;;;;5085246;28;24414;-44
2022/05/09 00:40:17;;;;;;;4.88;3.17;;;;;;;;;;5088686;28;24797;-44
2022/05/09 00:42:49;;;;;;;5.20;3.80;;;;;;;;;;5087299;28;24516;-45
2022/05/09 00:45:15;;;;;;;4.10;3.70;;;;;;;;;;5087740;28;24429;-44
2022/05/09 00:47:41;;;;;;;4.40;4.00;;;;;;;;;;5085718;28;24426;-44
2022/05/09 00:50:08;;;;;;;3.80;3.40;;;;;;;;;;5087370;28;24465;-45
2022/05/09 00:52:40;;;;;;;4.13;3.67;;;;;;;;;;5087144;28;24432;-45
2022/05/09 00:55:09;;;;;;;5.32;3.00;;;;;;;;;;5086891;28;25156;-45
2022/05/09 00:57:43;;;;;;;4.57;3.40;;;;;;;;;;5080736;28;24438;-44
2022/05/09 01:00:10;;;;;;;3.58;3.17;;;;;;;;;;5083570;28;24798;-45
2022/05/09 01:02:36;;;;;;;3.42;2.90;;;;;;;;;;5087137;28;24835;-45
2022/05/09 01:05:01;;;;;;;4.18;3.72;;;;;;;;;;5084228;28;24430;-45
2022/05/09 01:07:27;;;;;;;4.22;3.30;;;;;;;;;;5080742;28;24422;-44
2022/05/09 01:09:52;;;;;;;6.50;3.42;;;;;;;;;;5085725;28;24588;-44
2022/05/09 01:12:19;;;;;;;4.70;3.30;;;;;;;;;;5084825;28;25209;-44
2022/05/09 01:14:45;;;;;;;5.30;3.90;;;;;;;;;;5086923;28;24469;-45
2022/05/09 01:20:13;;;;;;;4.53;3.75;;;;;;;;;;5081607;28;24553;-45
2022/05/09 01:22:39;;;;;;;4.40;3.30;;;;;;;;;;5086389;28;25027;-45
2022/05/09 01:25:06;;;;;;;4.18;3.70;;;;;;;;;;5085214;28;24414;-45
2022/05/09 01:27:32;;;;;;;4.28;3.40;;;;;;;;;;5088288;28;24983;-44
2022/05/09 01:30:00;;;;;;;4.50;3.50;;;;;;;;;;5084984;28;24465;-44
2022/05/09 01:32:36;;;;;;;4.13;3.72;;;;;;;;;;5084763;28;24409;-43
2022/05/09 01:35:04;;;;;;;4.60;3.20;;;;;;;;;;5083213;28;24853;-44
2022/05/09 01:37:31;;;;;;;4.32;3.10;;;;;;;;;;5081646;28;24514;-44
2022/05/09 01:39:56;;;;;;;3.97;3.27;;;;;;;;;;5087037;28;24853;-44
2022/05/09 01:42:22;;;;;;;4.77;3.70;;;;;;;;;;5085173;28;25098;-45
2022/05/09 01:44:47;;;;;;;5.27;3.80;;;;;;;;;;5084822;28;24491;-43
2022/05/09 01:49:56;;;;;;;3.28;2.97;;;;;;;;;;5084351;28;24449;-44
2022/05/09 01:52:21;;;;;;;3.92;3.50;;;;;;;;;;5085223;28;24442;-45
2022/05/09 01:54:46;;;;;;;4.03;3.63;;;;;;;;;;5085829;28;24430;-45
2022/05/09 01:57:12;;;;;;;3.63;3.33;;;;;;;;;;5085310;28;24436;-46
2022/05/09 01:59:38;;;;;;;4.00;3.60;;;;;;;;;;5082390;28;24423;-45
2022/05/09 02:02:08;;;;;;;5.00;4.50;;;;;;;;;;5085390;28;24888;-44
2022/05/09 02:04:34;;;;;;;5.95;3.50;;;;;;;;;;5083276;28;24430;-44
2022/05/09 02:06:59;;;;;;;5.35;4.00;;;;;;;;;;5083579;28;24424;-45
2022/05/09 02:09:25;;;;;;;6.63;4.15;;;;;;;;;;5084096;28;24434;-44
2022/05/09 02:11:50;;;;;;;5.97;3.70;;;;;;;;;;5082355;28;24414;-45
2022/05/09 02:14:15;;;;;;;4.18;3.78;;;;;;;;;;5082727;28;24962;-44
2022/05/09 02:16:40;;;;;;;5.13;4.00;;;;;;;;;;5084511;28;24522;-44
2022/05/09 02:19:06;;;;;;;5.13;4.40;;;;;;;;;;5083647;28;24452;-44
2022/05/09 02:21:32;;;;;;;5.90;4.20;;;;;;;;;;5083063;28;24425;-44
2022/05/09 02:23:57;;;;;;;5.33;4.03;;;;;;;;;;5084653;28;24421;-44
2022/05/09 02:26:24;;;;;;;5.23;4.30;;;;;;;;;;5085225;28;24433;-44
2022/05/09 02:28:49;;;;;;;4.78;3.90;;;;;;;;;;5083780;28;24967;-44
2022/05/09 02:31:14;;;;;;;7.33;5.00;;;;;;;;;;5082171;28;24449;-45
2022/05/09 02:33:40;;;;;;;6.37;4.70;;;;;;;;;;5080023;28;24518;-45
2022/05/09 02:36:05;;;;;;;5.22;4.63;;;;;;;;;;5081343;28;24410;-46
2022/05/09 02:38:30;;;;;;;6.70;5.10;;;;;;;;;;5084455;28;24430;-46
2022/05/09 02:40:55;;;;;;;7.20;5.00;;;;;;;;;;5073959;28;24897;-45
2022/05/09 02:43:21;;;;;;;5.17;4.67;;;;;;;;;;5085619;28;24423;-45
2022/05/09 02:45:46;;;;;;;5.97;4.83;;;;;;;;;;5077681;28;24425;-45
2022/05/09 02:48:11;;;;;;;6.65;5.10;;;;;;;;;;5082514;28;24503;-45
2022/05/09 02:50:37;;;;;;;6.33;4.73;;;;;;;;;;5075138;28;24485;-45
2022/05/09 02:53:02;;;;;;;6.30;5.60;;;;;;;;;;5081854;28;24418;-45
2022/05/09 02:55:29;;;;;;;5.77;5.10;;;;;;;;;;5079996;28;24426;-45
2022/05/09 02:57:55;;;;;;;6.70;5.03;;;;;;;;;;5084693;28;24434;-45
2022/05/09 03:00:22;;;;;;;6.80;5.00;;;;;;;;;;5079864;28;24437;-45
2022/05/09 03:05:32;;;;;;;5.90;5.30;;;;;;;;;;5079126;28;25004;-45
2022/05/09 03:07:57;;;;;;;6.53;5.00;;;;;;;;;;5080395;28;24446;-45
2022/05/09 03:10:23;;;;;;;4.90;4.50;;;;;;;;;;5081223;28;24429;-45
2022/05/09 03:12:48;;;;;;;5.28;4.45;;;;;;;;;;5077958;28;24526;-45
2022/05/09 03:15:13;;;;;;;5.20;4.70;;;;;;;;;;5080829;28;24505;-45
2022/05/09 03:17:39;;;;;;;4.77;4.27;;;;;;;;;;5081061;28;24422;-45
2022/05/09 03:20:04;;;;;;;4.45;3.97;;;;;;;;;;5082553;28;24761;-45
2022/05/09 03:22:29;;;;;;;5.20;4.50;;;;;;;;;;5080340;28;24465;-45
2022/05/09 03:24:54;;;;;;;5.23;4.73;;;;;;;;;;5084436;28;24950;-45
2022/05/09 03:27:20;;;;;;;5.17;4.37;;;;;;;;;;5080134;28;24524;-46
2022/05/09 03:29:45;;;;;;;5.30;4.70;;;;;;;;;;5083839;28;24446;-45
2022/05/09 03:32:10;;;;;;;6.28;5.00;;;;;;;;;;5079773;28;24525;-45
2022/05/09 03:34:35;;;;;;;7.03;6.43;;;;;;;;;;5085796;28;24422;-45
2022/05/09 03:37:00;;;;;;;5.25;4.45;;;;;;;;;;5083998;28;24433;-45
2022/05/09 03:39:25;;;;;;;5.07;4.57;;;;;;;;;;5085412;28;24597;-45
2022/05/09 03:41:51;;;;;;;5.30;4.80;;;;;;;;;;5089686;28;24504;-46
2022/05/09 03:44:16;;;;;;;5.73;4.63;;;;;;;;;;5089135;28;24425;-46
2022/05/09 03:46:41;;;;;;;6.33;5.00;;;;;;;;;;5084029;28;24460;-46
2022/05/09 03:49:06;;;;;;;5.27;4.80;;;;;;;;;;5075471;28;24966;-46
2022/05/09 03:51:31;;;;;;;5.25;4.63;;;;;;;;;;5083438;28;24437;-46
2022/05/09 03:53:56;;;;;;;5.70;5.20;;;;;;;;;;5086615;28;24425;-45
2022/05/09 03:56:22;;;;;;;5.32;4.82;;;;;;;;;;5084579;28;24573;-45
2022/05/09 03:58:47;;;;;;;5.50;4.90;;;;;;;;;;5090718;28;24792;-45
2022/05/09 04:01:12;;;;;;;5.80;5.03;;;;;;;;;;5088509;28;24393;-45
2022/05/09 04:03:38;;;;;;;8.20;5.50;;;;;;;;;;5088703;28;24979;-46
2022/05/09 04:06:03;;;;;;;5.63;4.55;;;;;;;;;;5087910;28;24414;-45
2022/05/09 04:08:28;;;;;;;5.60;4.70;;;;;;;;;;5090181;28;24466;-46
2022/05/09 04:10:55;;;;;;;8.50;5.80;;;;;;;;;;5088873;28;24480;-45
2022/05/09 04:13:20;;;;;;;5.28;4.80;;;;;;;;;;5088454;28;25180;-46
2022/05/09 04:18:32;;;;;;;6.13;4.75;;;;;;;;;;5088858;28;24626;-45
2022/05/09 04:20:57;;;;;;;5.20;4.70;;;;;;;;;;5087129;28;25052;-46
2022/05/09 04:23:22;;;;;;;7.50;5.00;;;;;;;;;;5084688;28;24438;-46
2022/05/09 04:25:48;;;;;;;5.53;4.60;;;;;;;;;;5084942;28;24565;-45
2022/05/09 04:28:15;;;;;;;4.90;4.40;;;;;;;;;;5083787;28;24429;-45
2022/05/09 04:30:40;;;;;;;5.13;4.65;;;;;;;;;;5082962;28;24810;-45
2022/05/09 04:33:06;;;;;;;4.67;4.20;;;;;;;;;;5084279;28;24422;-45
2022/05/09 04:35:32;;;;;;;4.22;3.83;;;;;;;;;;5074109;28;24445;-45
2022/05/09 04:37:58;;;;;;;4.28;3.88;;;;;;;;;;5082547;28;24429;-49
2022/05/09 04:40:25;;;;;;;4.78;4.00;;;;;;;;;;5083816;28;24952;-45
2022/05/09 04:42:51;;;;;;;4.25;3.90;;;;;;;;;;5084487;28;24437;-45
2022/05/09 04:45:17;;;;;;;3.90;3.50;;;;;;;;;;5082595;28;24426;-46
2022/05/09 04:47:44;;;;;;;4.10;3.70;;;;;;;;;;5083801;28;24430;-45
2022/05/09 04:50:10;;;;;;;3.45;3.15;;;;;;;;;;5084248;28;25196;-45
2022/05/09 04:52:35;;;;;;;4.15;3.58;;;;;;;;;;5084211;28;24419;-46
2022/05/09 04:55:01;;;;;;;4.33;3.43;;;;;;;;;;5082855;28;24426;-45
2022/05/09 04:57:26;;;;;;;3.20;3.00;;;;;;;;;;5080750;28;24849;-46
2022/05/09 04:59:51;;;;;;;3.60;3.30;;;;;;;;;;5085213;28;24430;-46
2022/05/09 05:02:16;;;;;;;4.20;3.80;;;;;;;;;;5078171;28;24429;-46
2022/05/09 05:04:42;;;;;;;4.38;3.97;;;;;;;;;;5078096;28;24513;-46
2022/05/09 05:07:08;;;;;;;3.80;3.50;;;;;;;;;;5080298;28;24496;-46
2022/05/09 05:09:33;;;;;;;4.05;3.53;;;;;;;;;;5083959;28;24972;-45
2022/05/09 05:11:58;;;;;;;3.50;3.20;;;;;;;;;;5084339;28;24499;-45
2022/05/09 05:14:23;;;;;;;3.70;3.30;;;;;;;;;;5068061;28;24418;-45
2022/05/09 05:17:00;;;;;;;4.00;3.58;;;;;;;;;;5077564;28;24570;-46
2022/05/09 05:19:26;;;;;;;4.50;3.90;;;;;;;;;;5079146;28;24426;-46
2022/05/09 05:21:51;;;;;;;4.20;3.60;;;;;;;;;;5086894;28;24402;-45
2022/05/09 05:24:16;;;;;;;3.57;3.27;;;;;;;;;;5083183;28;24435;-46
2022/05/09 05:26:42;;;;;;;4.20;3.80;;;;;;;;;;5087970;28;24414;-46
2022/05/09 05:29:07;;;;;;;4.05;3.60;;;;;;;;;;5084942;28;24431;-46
2022/05/09 05:31:32;;;;;;;4.38;4.00;;;;;;;;;;5067751;28;24446;-46
2022/05/09 05:33:57;;;;;;;4.75;4.35;;;;;;;;;;5088329;28;24865;-46
2022/05/09 05:36:22;;;;;;;4.22;3.83;;;;;;;;;;5088726;28;24406;-46
2022/05/09 05:38:51;;;;;;;4.70;4.20;;;;;;;;;;5088658;28;24397;-46
2022/05/09 05:41:17;;;;;;;4.88;4.47;;;;;;;;;;5084115;28;24468;-47
2022/05/09 05:43:42;;;;;;;5.30;3.80;;;;;;;;;;5074823;28;24434;-45
2022/05/09 05:46:09;;;;;;;4.20;3.90;;;;;;;;;;5083190;28;24421;-45
2022/05/09 05:48:34;;;;;;;4.72;4.32;;;;;;;;;;5081269;28;24490;-45
2022/05/09 05:50:59;;;;;;;4.70;3.90;;;;;;;;;;5083189;28;24469;-45
2022/05/09 05:53:24;;;;;;;6.07;4.50;;;;;;;;;;5085548;28;24413;-45
2022/05/09 05:55:49;;;;;;;5.40;4.90;;;;;;;;;;5085286;28;24406;-45
2022/05/09 05:58:14;;;;;;;4.80;4.28;;;;;;;;;;5086330;28;24998;-45
2022/05/09 06:00:40;;;;;;;5.65;4.60;;;;;;;;;;5087529;28;24471;-45
2022/05/09 06:03:07;;;;;;;5.60;4.90;;;;;;;;;;5082796;28;24434;-45
2022/05/09 06:05:32;;;;;;;4.50;4.10;;;;;;;;;;5086780;28;24958;-45
2022/05/09 06:07:57;;;;;;;4.00;3.60;;;;;;;;;;5083596;28;25031;-45
2022/05/09 06:10:23;;;;;;;6.85;4.75;;;;;;;;;;5082315;28;24503;-45
2022/05/09 06:12:48;;;;;;;4.53;4.13;;;;;;;;;;5087458;28;24509;-45
2022/05/09 06:15:31;;;;;;;4.50;3.80;;;;;;;;;;5087829;28;24932;-45
2022/05/09 06:17:58;;;;;;;5.43;4.00;;;;;;;;;;5084185;28;24513;-45
2022/05/09 06:20:23;;;;;;;4.68;4.28;;;;;;;;;;5082071;28;24503;-45
2022/05/09 06:22:49;;;;;;;5.07;4.57;;;;;;;;;;5086989;28;24523;-44
2022/05/09 06:25:16;;;;;;;4.90;4.20;;;;;;;;;;5082535;28;24498;-44
2022/05/09 06:27:41;;;;;;;5.22;4.70;;;;;;;;;;5083415;28;24528;-44
2022/05/09 06:30:08;;;;;;;7.40;5.60;;;;;;;;;;5085449;28;24458;-45
2022/05/09 06:32:33;;;;;;;6.45;5.03;;;;;;;;;;5087022;28;24430;-45
2022/05/09 06:35:06;;;;;;;7.55;5.38;;;;;;;;;;5082536;28;24698;-44
2022/05/09 06:37:35;;;;;;;4.82;4.40;;;;;;;;;;5085863;28;24780;-44
2022/05/09 06:40:01;;;;;;;5.30;4.80;;;;;;;;;;5084631;28;24432;-44
2022/05/09 06:42:27;;;;;;;5.00;4.50;;;;;;;;;;5087124;28;24452;-44
2022/05/09 06:44:52;;;;;;;4.90;4.50;;;;;;;;;;5087101;28;24399;-45
2022/05/09 06:47:17;;;;;;;5.20;4.70;;;;;;;;;;5087607;28;25034;-44
2022/05/09 06:49:43;;;;;;;6.40;4.40;;;;;;;;;;5074761;28;24515;-44
2022/05/09 06:52:08;;;;;;;8.35;5.20;;;;;;;;;;5075400;28;24521;-44
2022/05/09 06:54:33;;;;;;;5.60;5.10;;;;;;;;;;5086729;28;24725;-44
2022/05/09 06:56:58;;;;;;;6.60;5.40;;;;;;;;;;5081894;28;24425;-44
2022/05/09 06:59:23;;;;;;;5.20;4.70;;;;;;;;;;5087441;28;24398;-44
2022/05/09 07:01:50;;;;;;;5.50;4.70;;;;;;;;;;5085140;28;24764;-44
2022/05/09 07:04:16;;;;;;;5.60;4.40;;;;;;;;;;5074921;28;24525;-44
2022/05/09 07:06:41;;;;;;;4.85;4.45;;;;;;;;;;5078546;28;24785;-44
2022/05/09 07:09:09;;;;;;;5.20;4.70;;;;;;;;;;5086692;28;24522;-44
2022/05/09 07:11:34;;;;;;;4.55;4.13;;;;;;;;;;5087008;28;24482;-44
2022/05/09 07:14:00;;;;;;;4.20;3.80;;;;;;;;;;5086575;28;24455;-44
2022/05/09 07:16:25;;;;;;;4.60;4.20;;;;;;;;;;5085268;28;24502;-44
2022/05/09 07:18:50;;;;;;;5.70;5.10;;;;;;;;;;5073283;28;24998;-44
2022/05/09 07:21:15;;;;;;;4.93;4.43;;;;;;;;;;5086333;28;24399;-44
2022/05/09 07:23:40;;;;;;;7.43;5.30;;;;;;;;;;5087078;28;24757;-44
2022/05/09 07:26:06;;;;;;;5.67;4.40;;;;;;;;;;5086775;28;24405;-45
2022/05/09 07:28:31;;;;;;;6.32;5.40;;;;;;;;;;5066558;28;25037;-45
2022/05/09 07:30:58;;;;;;;5.80;4.83;;;;;;;;;;5078634;28;24457;-44
2022/05/09 07:33:23;;;;;;;8.77;5.05;;;;;;;;;;5085090;28;24418;-44
2022/05/09 07:35:48;;;;;;;5.17;4.67;;;;;;;;;;5087048;28;24391;-44
2022/05/09 07:38:14;;;;;;;4.78;4.30;;;;;;;;;;5086598;28;24994;-44
2022/05/09 07:40:40;;;;;;;5.00;4.00;;;;;;;;;;5085098;28;24441;-45
2022/05/09 07:43:17;;;;;;;4.97;4.35;;;;;;;;;;5086676;28;24405;-44
2022/05/09 07:45:43;;;;;;;4.40;4.00;;;;;;;;;;5086840;28;24404;-45
2022/05/09 07:48:09;;;;;;;4.53;4.13;;;;;;;;;;5084452;28;24938;-44
2022/05/09 07:50:34;;;;;;;6.53;4.40;;;;;;;;;;5085449;28;24512;-44
2022/05/09 07:53:04;;;;;;;4.40;3.92;;;;;;;;;;5086108;28;24410;-44
2022/05/09 07:55:29;;;;;;;5.50;4.95;;;;;;;;;;5086770;28;24402;-44
2022/05/09 07:57:54;;;;;;;6.70;4.10;;;;;;;;;;5086726;28;24482;-45
2022/05/09 08:00:20;;;;;;;5.70;4.80;;;;;;;;;;5085295;28;24459;-44
2022/05/09 08:02:45;;;;;;;7.90;4.40;;;;;;;;;;5071087;28;24457;-45
2022/05/09 08:05:10;;;;;;;4.25;3.72;;;;;;;;;;5066022;28;24536;-45
2022/05/09 08:07:37;;;;;;;5.37;4.20;;;;;;;;;;5066163;28;24936;-44
2022/05/09 08:10:02;;;;;;;4.50;4.10;;;;;;;;;;5066029;28;24511;-45
2022/05/09 08:12:27;;;;;;;4.70;4.13;;;;;;;;;;5071944;28;24785;-45
2022/05/09 08:14:52;;;;;;;4.60;3.85;;;;;;;;;;5086445;28;24399;-44
2022/05/09 08:17:18;;;;;;;4.88;3.90;;;;;;;;;;5067128;28;24410;-45
2022/05/09 08:19:45;;;;;;;4.57;3.70;;;;;;;;;;5065595;28;24487;-44
2022/05/09 08:22:10;;;;;;;4.82;4.00;;;;;;;;;;5067698;28;25015;-44
2022/05/09 08:24:35;;;;;;;6.25;4.50;;;;;;;;;;5086215;28;24404;-44
2022/05/09 08:27:00;;;;;;;4.30;3.90;;;;;;;;;;5071095;28;24754;-45
2022/05/09 08:29:25;;;;;;;5.22;4.05;;;;;;;;;;5069451;28;24398;-44
2022/05/09 08:31:50;;;;;;;6.10;5.03;;;;;;;;;;5077453;28;24445;-44
2022/05/09 08:34:16;;;;;;;4.10;3.70;;;;;;;;;;5087771;28;24426;-44
2022/05/09 08:36:48;;;;;;;7.28;4.35;;;;;;;;;;5089522;28;24447;-45
2022/05/09 08:39:14;;;;;;;5.53;4.30;;;;;;;;;;5089621;28;24394;-45
2022/05/09 08:41:54;;;;;;;5.20;4.20;;;;;;;;;;5086827;28;24428;-45
2022/05/09 08:44:22;;;;;;;3.90;3.55;;;;;;;;;;5080073;28;24426;-45
2022/05/09 08:47:06;;;;;;;4.20;3.42;;;;;;;;;;5075602;28;24784;-44
2022/05/09 08:49:37;;;;;;;7.28;4.55;;;;;;;;;;5089472;28;24393;-45
2022/05/09 08:52:13;;;;;;;4.60;3.75;;;;;;;;;;5089311;28;24395;-44
2022/05/09 08:54:39;;;;;;;4.88;3.70;;;;;;;;;;5088112;28;24444;-44
2022/05/09 08:57:08;;;;;;;4.10;3.70;;;;;;;;;;5088247;28;24810;-43
2022/05/09 08:59:36;;;;;;;4.18;3.65;;;;;;;;;;5088732;28;24858;-45
2022/05/09 09:02:18;;;;;;;5.65;3.92;;;;;;;;;;5095987;28;24393;-45
2022/05/09 09:04:49;;;;;;;3.90;3.20;;;;;;;;;;5109869;28;24392;-44
2022/05/09 09:07:30;;;;;;;4.78;3.53;;;;;;;;;;5104270;28;24598;-43
2022/05/09 09:10:02;;;;;;;6.43;3.60;;;;;;;;;;5089267;28;24438;-44
2022/05/09 09:12:49;;;;;;;5.75;4.18;;;;;;;;;;5079389;28;25049;-44
2022/05/09 09:15:19;;;;;;;4.20;3.78;;;;;;;;;;5081770;28;25094;-44
2022/05/09 09:17:47;;;;;;;5.60;4.20;;;;;;;;;;5084045;28;25029;-44
2022/05/09 09:20:24;;;;;;;4.20;3.80;;;;;;;;;;5088430;28;24418;-45
2022/05/09 09:23:02;;;;;;;3.97;3.50;;;;;;;;;;5088365;28;24437;-45
2022/05/09 09:25:54;;;;;;;4.40;3.10;;;;;;;;;;5088110;28;24510;-44
2022/05/09 09:28:26;;;;;;;2.80;2.40;;;;;;;;;;5055504;28;24430;-44
2022/05/09 09:30:52;;;;;;;3.28;2.97;;;;;;;;;;5087422;28;24438;-44
2022/05/09 09:33:18;;;;;;;4.50;3.40;;;;;;;;;;5087623;28;24416;-45
2022/05/09 09:35:53;;;;;;;3.22;2.90;;;;;;;;;;5088121;28;24471;-44
2022/05/09 09:38:33;;;;;;;3.08;2.78;;;;;;;;;;5087330;28;24398;-45
2022/05/09 09:41:18;;;;;;;4.90;3.40;;;;;;;;;;5087417;28;24410;-45
2022/05/09 09:43:44;;;;;;;4.32;3.50;;;;;;;;;;5087441;28;24405;-45
2022/05/09 09:46:09;;;;;;;3.40;3.10;;;;;;;;;;5087033;28;24425;-45
2022/05/09 09:48:35;;;;;;;3.95;3.08;;;;;;;;;;5087745;28;24761;-44
2022/05/09 09:51:05;;;;;;;3.57;3.07;;;;;;;;;;5086736;28;24469;-45
2022/05/09 09:53:30;;;;;;;3.55;3.25;;;;;;;;;;5087974;28;24915;-52
2022/05/09 09:55:59;;;;;;;3.73;3.20;;;;;;;;;;5088199;28;24421;-45
2022/05/09 09:58:26;;;;;;;4.97;3.58;;;;;;;;;;5088119;28;24439;-45
2022/05/09 10:01:01;;;;;;;4.38;3.30;;;;;;;;;;5086260;28;24429;-45
2022/05/09 10:03:30;;;;;;;3.97;3.40;;;;;;;;;;5077392;28;24468;-45
2022/05/09 10:05:56;;;;;;;4.03;3.60;;;;;;;;;;5105938;27;24939;-45
2022/05/09 10:08:25;;;;;;;5.40;3.80;;;;;;;;;;5087892;28;24397;-45
2022/05/09 10:10:55;;;;;;;3.90;3.50;;;;;;;;;;5085586;28;24590;-44
2022/05/09 10:13:22;;;;;;;4.15;3.20;;;;;;;;;;5085853;28;24964;-44
2022/05/09 10:16:00;;;;;;;4.67;3.60;;;;;;;;;;5088344;28;24406;-44
2022/05/09 10:18:30;;;;;;;3.20;2.83;;;;;;;;;;5087820;28;24386;-44
2022/05/09 10:20:55;;;;;;;4.05;3.40;;;;;;;;;;5085777;28;24406;-44
2022/05/09 10:26:18;;;;;;;3.30;3.00;;;;;;;;;;5067328;28;25039;-44
2022/05/09 10:28:48;;;;;;;3.20;2.90;;;;;;;;;;5067450;28;24448;-43
2022/05/09 10:31:20;;;;;;;3.50;2.70;;;;;;;;;;5066488;28;24606;-45
2022/05/09 10:33:49;;;;;;;3.85;2.80;;;;;;;;;;5084847;28;24413;-45
2022/05/09 10:36:22;;;;;;;4.85;3.00;;;;;;;;;;5087427;28;24378;-45
2022/05/09 10:38:50;;;;;;;3.03;2.72;;;;;;;;;;5087463;28;24377;-45
2022/05/09 10:41:27;;;;;;;3.50;2.65;;;;;;;;;;5085165;28;24532;-45
2022/05/09 10:44:00;;;;;;;2.92;2.50;;;;;;;;;;5083890;28;24470;-45
2022/05/09 10:46:35;;;;;;;4.20;2.90;;;;;;;;;;5087835;28;24410;-45
2022/05/09 10:49:03;;;;;;;3.20;2.80;;;;;;;;;;5086955;28;24390;-45
2022/05/09 10:51:35;;;;;;;3.10;2.40;;;;;;;;;;5078004;28;24441;-45
2022/05/09 10:54:10;;;;;;;3.78;2.85;;;;;;;;;;5073832;28;24452;-45
2022/05/09 10:56:39;;;;;;;5.70;2.88;;;;;;;;;;5086978;28;24395;-45
2022/05/09 10:59:04;;;;;;;6.37;3.27;;;;;;;;;;5086850;28;24448;-45
2022/05/09 11:01:32;;;;;;;5.80;3.20;;;;;;;;;;5072906;28;24454;-45
2022/05/09 11:03:57;;;;;;;3.33;2.70;;;;;;;;;;5065520;28;24531;-45
2022/05/09 11:06:26;;;;;;;3.17;2.90;;;;;;;;;;5085336;28;24940;-45
2022/05/09 11:08:57;;;;;;;4.10;2.70;;;;;;;;;;5086931;28;24433;-45
2022/05/09 11:11:24;;;;;;;3.40;2.67;;;;;;;;;;5086773;28;25239;-46
2022/05/09 11:13:49;;;;;;;3.00;2.30;;;;;;;;;;5086598;28;24927;-45
2022/05/09 11:16:21;;;;;;;5.57;3.30;;;;;;;;;;5085725;28;24448;-45
2022/05/09 11:18:46;;;;;;;2.90;2.60;;;;;;;;;;5087095;28;24402;-44
2022/05/09 11:21:19;;;;;;;6.55;2.90;;;;;;;;;;5082511;28;24417;-45
2022/05/09 11:23:50;;;;;;;3.78;2.83;;;;;;;;;;5079023;28;24480;-44
2022/05/09 11:26:27;;;;;;;4.22;3.10;;;;;;;;;;5081652;28;25003;-44
2022/05/09 11:29:09;;;;;;;5.00;2.80;;;;;;;;;;5079972;28;24434;-45
2022/05/09 11:31:58;;;;;;;4.25;3.10;;;;;;;;;;5086663;28;24521;-45
2022/05/09 11:34:26;;;;;;;4.60;2.83;;;;;;;;;;5072012;28;24456;-44
2022/05/09 11:37:10;;;;;;;3.92;2.72;;;;;;;;;;5086732;28;24587;-45
2022/05/09 11:39:39;;;;;;;3.95;2.90;;;;;;;;;;5086418;28;24905;-45
2022/05/09 11:43:27;;;;;;;3.00;2.70;;;;;;;;;;5086242;28;24414;-45
2022/05/09 11:44:57;;;;;;;5.38;2.92;;;;;;;;;;5084448;28;24451;-45
2022/05/09 11:47:30;;;;;;;3.90;2.80;;;;;;;;;;5085562;28;24425;-45
2022/05/09 11:50:14;;;;;;;4.13;2.90;;;;;;;;;;5086647;28;24481;-47
2022/05/09 11:52:42;;;;;;;3.70;3.00;;;;;;;;;;5084814;28;24406;-45
2022/05/09 11:55:18;;;;;;;3.63;2.47;;;;;;;;;;5085976;28;24484;-45
2022/05/09 11:57:45;;;;;;;3.63;2.72;;;;;;;;;;5086515;28;24401;-45
2022/05/09 12:00:25;;;;;;;3.83;2.75;;;;;;;;;;5087457;28;24413;-45
2022/05/09 12:02:53;;;;;;;5.13;2.65;;;;;;;;;;5087280;28;25355;-45
2022/05/09 12:05:28;;;;;;;3.53;2.70;;;;;;;;;;5084444;28;24479;-45
2022/05/09 12:08:05;;;;;;;3.85;2.90;;;;;;;;;;5089968;28;24410;-45
2022/05/09 12:10:32;;;;;;;3.78;2.38;;;;;;;;;;5090404;28;24499;-45
2022/05/09 12:12:59;;;;;;;3.00;2.53;;;;;;;;;;5085506;28;24407;-45
2022/05/09 12:15:24;;;;;;;3.97;2.80;;;;;;;;;;5088245;28;24538;-45
2022/05/09 12:17:53;;;;;;;3.30;2.60;;;;;;;;;;5084471;28;24456;-45
2022/05/09 12:20:23;;;;;;;3.88;2.65;;;;;;;;;;5077633;28;25099;-45
2022/05/09 12:22:51;;;;;;;4.68;2.90;;;;;;;;;;5086087;28;24422;-45
2022/05/09 12:25:35;;;;;;;6.15;2.90;;;;;;;;;;5089872;28;24494;-45
2022/05/09 12:28:03;;;;;;;4.30;2.70;;;;;;;;;;5088473;28;24450;-45
2022/05/09 12:30:31;;;;;;;3.60;3.00;;;;;;;;;;5074349;28;25032;-45
2022/05/09 12:32:56;;;;;;;4.28;2.80;;;;;;;;;;5074090;28;24423;-45
2022/05/09 12:35:21;;;;;;;3.92;2.80;;;;;;;;;;5089762;28;24421;-45
2022/05/09 12:37:46;;;;;;;3.00;2.42;;;;;;;;;;5085567;28;24551;-45
2022/05/09 12:40:38;;;;;;;2.78;2.47;;;;;;;;;;5089459;28;24421;-44
2022/05/09 12:43:03;;;;;;;2.70;2.33;;;;;;;;;;5086211;28;24457;-45
2022/05/09 12:45:29;;;;;;;3.20;2.38;;;;;;;;;;5089321;28;24430;-45
2022/05/09 12:47:54;;;;;;;3.63;2.80;;;;;;;;;;5089908;28;24553;-45
2022/05/09 12:50:28;;;;;;;4.65;2.80;;;;;;;;;;5086589;28;24424;-45
2022/05/09 12:53:04;;;;;;;4.55;2.40;;;;;;;;;;5089395;28;24402;-44
2022/05/09 12:55:57;;;;;;;3.35;2.75;;;;;;;;;;5087155;28;24451;-44
2022/05/09 12:58:33;;;;;;;2.75;2.55;;;;;;;;;;5089153;28;24406;-45
2022/05/09 13:01:07;;;;;;;3.95;2.80;;;;;;;;;;5086202;28;24495;-45
2022/05/09 13:03:41;;;;;;;3.92;2.65;;;;;;;;;;5085420;28;24994;-44
2022/05/09 13:06:10;;;;;;;3.30;2.80;;;;;;;;;;5075478;28;24441;-45
2022/05/09 13:08:36;;;;;;;2.50;2.30;;;;;;;;;;5088852;28;24940;-45
2022/05/09 13:11:01;;;;;;;6.93;3.10;;;;;;;;;;5088826;28;24432;-45
2022/05/09 13:13:30;;;;;;;3.00;2.60;;;;;;;;;;5088770;28;24775;-45
2022/05/09 13:15:56;;;;;;;3.60;2.55;;;;;;;;;;5088602;28;24988;-45
2022/05/09 13:18:25;;;;;;;3.00;2.40;;;;;;;;;;5087817;28;24514;-45
2022/05/09 13:20:51;;;;;;;3.90;2.58;;;;;;;;;;5074968;28;25048;-45
2022/05/09 13:23:23;;;;;;;4.95;2.65;;;;;;;;;;5069172;28;24498;-44
2022/05/09 13:25:50;;;;;;;2.70;2.45;;;;;;;;;;5088757;28;24725;-45
2022/05/09 13:28:17;;;;;;;2.78;2.35;;;;;;;;;;5074958;28;24980;-46
2022/05/09 13:30:47;;;;;;;2.65;2.45;;;;;;;;;;5068473;28;24442;-45
2022/05/09 13:33:17;;;;;;;2.83;2.30;;;;;;;;;;5076226;28;24460;-45
2022/05/09 13:35:46;;;;;;;3.15;2.85;;;;;;;;;;5088824;28;24407;-45
2022/05/09 13:38:17;;;;;;;3.80;2.50;;;;;;;;;;5088553;28;24387;-44
2022/05/09 13:40:43;;;;;;;3.85;2.35;;;;;;;;;;5088519;28;24401;-44
2022/05/09 13:43:08;;;;;;;3.13;2.70;;;;;;;;;;5087378;28;24856;-44
2022/05/09 13:45:33;;;;;;;3.03;2.40;;;;;;;;;;5088469;28;24448;-44
2022/05/09 13:48:00;;;;;;;4.22;2.25;;;;;;;;;;5086416;28;24429;-44
2022/05/09 13:50:28;;;;;;;3.38;2.60;;;;;;;;;;5084542;28;24932;-44
2022/05/09 13:52:53;;;;;;;4.20;2.78;;;;;;;;;;5084673;28;24433;-45
2022/05/09 13:55:41;;;;;;;3.15;2.50;;;;;;;;;;5083642;28;24414;-44
2022/05/09 13:58:07;;;;;;;2.92;2.63;;;;;;;;;;5075978;28;24424;-45
2022/05/09 14:00:34;;;;;;;3.30;2.58;;;;;;;;;;5077356;28;24514;-44
2022/05/09 14:03:05;;;;;;;2.97;2.00;;;;;;;;;;5084532;28;25244;-44
2022/05/09 14:05:32;;;;;;;2.83;2.42;;;;;;;;;;5083824;28;25078;-45
2022/05/09 14:08:00;;;;;;;3.60;2.50;;;;;;;;;;5083489;28;24478;-43
2022/05/09 14:10:41;;;;;;;2.50;2.30;;;;;;;;;;5085963;28;24428;-44
2022/05/09 14:13:26;;;;;;;3.83;2.40;;;;;;;;;;5084482;28;24426;-43
2022/05/09 14:15:55;;;;;;;2.85;2.42;;;;;;;;;;5087017;28;24642;-45
2022/05/09 14:18:20;;;;;;;2.70;2.20;;;;;;;;;;5073793;28;24445;-43
2022/05/09 14:20:46;;;;;;;2.97;2.50;;;;;;;;;;5067382;28;24452;-45
2022/05/09 14:23:13;;;;;;;4.80;2.50;;;;;;;;;;5080091;28;24479;-44
2022/05/09 14:31:20;;;;;;;5.00;2.80;;;;;;;;;;5087083;28;24426;-44
2022/05/09 14:33:45;;;;;;;2.58;2.30;;;;;;;;;;5085817;28;24429;-45
2022/05/09 14:36:29;;;;;;;6.03;2.50;;;;;;;;;;5087527;28;24654;-44
2022/05/09 14:38:55;;;;;;;3.00;2.50;;;;;;;;;;5087487;28;24924;-44
2022/05/09 14:41:40;;;;;;;3.25;2.60;;;;;;;;;;5083626;28;24555;-44
2022/05/09 14:44:10;;;;;;;3.05;2.35;;;;;;;;;;5078336;28;24513;-45
2022/05/09 14:46:52;;;;;;;3.50;2.30;;;;;;;;;;5087191;28;24397;-46
2022/05/09 14:49:18;;;;;;;3.53;2.70;;;;;;;;;;5087583;28;24433;-45
2022/05/09 14:51:54;;;;;;;3.03;2.73;;;;;;;;;;5086318;28;24515;-44
2022/05/09 14:54:19;;;;;;;3.75;2.50;;;;;;;;;;5087022;28;24453;-46
2022/05/09 14:59:29;;;;;;;4.10;2.47;;;;;;;;;;5086421;28;24436;-46
2022/05/09 15:02:00;;;;;;;2.15;2.00;;;;;;;;;;5084745;28;24457;-46
2022/05/09 15:04:26;;;;;;;2.40;2.20;;;;;;;;;;5085943;28;24520;-45
2022/05/09 15:06:51;;;;;;;2.35;2.15;;;;;;;;;;5086870;28;24405;-44
2022/05/09 15:09:16;;;;;;;3.20;2.40;;;;;;;;;;5086781;28;24429;-45
2022/05/09 15:11:42;;;;;;;3.70;2.10;;;;;;;;;;5077455;28;24879;-45